Delta Virtual Airport Information Service

Orlando Sanford International Airport

ICAO: KSFB Country: United States
Latitude: 28.7767 Longitude: -81.2355
Latest Arrival : AAY2915 (KALB-KSFB) Latest Departure : AAY2116 (C) (KSFB-KRDU)


WX CaptureLIVE
Data provided by noaa.gov | Fetched at 14:48:12

METAR : KSFB 291853Z AUTO 26009KT 10SM SCT039 32/22 A2978 RMK AO2 LTG DSNT E AND S SLP082 T03170222

TAF : KSFB 291731Z 2918/3018 20010KT P6SM VCSH SCT030 SCT060 BKN250 FM291900 23011KT P6SM VCTS SCT035CB BKN070 BKN250 TEMPO 2919/2922 3SM TSRA BKN030CB BKN060 FM292300 26010KT P6SM VCSH FEW040 BKN070 BKN250 FM300200 30009KT P6SM FEW030 BKN100 FM301000 35012KT P6SM FEW020 BKN035


Runway Data for KSFB
Data provided by openaviationdata.com

Runway ID Mag Var Hdg Length Elevation Surface ILS Freq ILS Id ILS Slope
09L -4 94° 9593 ft 55 ft Asphalt 108.9 ISND 3
09R -4 94° 3497 ft 55 ft Asphalt -- -- --
09C -4 94° 3575 ft 55 ft Asphalt -- -- --
18 -4 184° 6019 ft 55 ft Asphalt -- -- --
27L -4 274° 3497 ft 55 ft Asphalt -- -- --
27R -4 274° 9593 ft 55 ft Asphalt 110.15 IFNU 3
27C -4 274° 3575 ft 55 ft Asphalt -- -- --
36 -4 6019 ft 55 ft Asphalt -- -- --

Orlando Sanford International Airport, United States
Use only for reference purposes



Not for navigational purposes.